Midway, AR (72651)

8:53 PM CST on December 02, 2016 (GMT -0600)
High Ridge | | Change Station

Elev 900 ft 36.39 °N, 92.49 °W | Updated 55 seconds ago

Clear
Clear
46.8 °F
Feels Like 44 °F
N
6.0
Wind Variable Wind from East
Gusts 6.0 mph

Today
High -- | Low -- °F
--% Chance of Precip.
Yesterday
High -- | Low -- °F
Precip. -- in
Pressure 30.27 in
Visibility 10.0 miles
Clouds Clear
Windchill 44 °F
Dew Point 23 °F
Humidity 39%
Rainfall 0.00 in
Snow Depth Not available.
7:04 AM 4:54 PM
Waxing Crescent, 12% visible
METAR KBPK 030153Z AUTO 12005KT 10SM CLR 09/00 A3026 RMK AO2 SLP250 T00890000
Pressure 30.27 in
Visibility 10.0 miles
Clouds Clear
Windchill 44 °F
Dew Point 23 °F
Humidity 39%
Rainfall 0.00 in
Snow Depth Not available.
7:04 AM 4:54 PM
Waxing Crescent, 12% visible
METAR KBPK 030153Z AUTO 12005KT 10SM CLR 09/00 A3026 RMK AO2 SLP250 T00890000

10-Day Weather Forecast

Almanac

Astronomy

Dec. 02, 2016 Rise Set
Actual Time
Civil Twilight
Nautical Twilight
Astronomical Twilight
Moon
Length of Visible Light
Length of Day
Tomorrow will be .
, % of the Moon is Illuminated

Today's Extremes

State Highs State Lows

Community

WunderPhotos

Upload Photos

1,955,396 photos uploaded!

WunderBlog® & News

Nearby

Air Quality

  Air Quality AQ Index Pollutant
Not available.

Snow Depth

Station Depth Elevation

Earthquake Activity

City Distance Mag. Time & Date
Minimum magnitude displayed is 2.5.

Coastal Water Temperatures

Place Temperature

Stations

Nearby Weather Stations

Station Location Temp. Windchill Dew Point Humidity Wind Precip. Elev Updated Type
                   

Watches & Warnings

There are currently no watches in effect.